createdAt,value
2023-05-19T00:00:42.861Z,142.91
2023-05-19T00:01:42.927Z,140.25
2023-05-19T00:02:43.028Z,143.79
2023-05-19T00:03:43.056Z,143.03
2023-05-19T00:04:43.069Z,140.35
2023-05-19T00:05:43.156Z,143.54
2023-05-19T00:06:43.177Z,145.03
2023-05-19T00:07:43.223Z,140.88
2023-05-19T00:08:43.277Z,141.32
2023-05-19T00:09:43.332Z,141.35
2023-05-19T00:10:43.376Z,144.90
2023-05-19T00:11:43.433Z,144.06
2023-05-19T00:12:43.486Z,144.51
2023-05-19T00:13:43.525Z,143.88
2023-05-19T00:14:43.589Z,143.68
2023-05-19T00:15:43.672Z,143.00
2023-05-19T00:16:43.702Z,145.57
2023-05-19T00:17:43.813Z,143.40
2023-05-19T00:18:43.814Z,143.43
2023-05-19T00:19:43.842Z,144.01
2023-05-19T00:20:43.912Z,146.14
2023-05-19T00:21:43.957Z,146.18
2023-05-19T00:22:44.010Z,142.82
2023-05-19T00:23:44.058Z,146.21
2023-05-19T00:24:44.115Z,146.89
2023-05-19T00:25:44.166Z,143.35
2023-05-19T00:26:44.219Z,146.09
2023-05-19T00:27:44.279Z,145.55
2023-05-19T00:28:44.316Z,143.82
2023-05-19T00:29:44.364Z,146.24
2023-05-19T00:30:44.434Z,148.09
2023-05-19T00:31:44.516Z,142.21
2023-05-19T00:32:44.567Z,146.24
2023-05-19T00:33:44.601Z,144.14
2023-05-19T00:34:44.627Z,144.97
2023-05-19T00:35:44.681Z,143.26
2023-05-19T00:36:44.740Z,144.91
2023-05-19T00:37:44.784Z,142.89
2023-05-19T00:38:44.853Z,145.92
2023-05-19T00:39:44.895Z,146.95
2023-05-19T00:40:44.954Z,147.84
2023-05-19T00:41:45.016Z,143.76
2023-05-19T00:42:45.055Z,146.71
2023-05-19T00:43:45.226Z,149.74
2023-05-19T00:44:45.162Z,148.94
2023-05-19T00:45:45.212Z,145.76
2023-05-19T00:46:45.301Z,146.86
2023-05-19T00:47:45.344Z,147.53
2023-05-19T00:48:45.403Z,148.46
2023-05-19T00:49:45.431Z,148.71
2023-05-19T00:50:45.480Z,147.22
2023-05-19T00:51:45.555Z,150.39
2023-05-19T00:52:45.588Z,148.67
2023-05-19T00:53:45.659Z,151.34
2023-05-19T00:54:45.699Z,149.24
2023-05-19T00:55:45.744Z,147.78
2023-05-19T00:56:45.805Z,148.81
2023-05-19T00:57:45.831Z,149.45
2023-05-19T00:58:45.892Z,147.24
2023-05-19T00:59:45.939Z,150.69
2023-05-19T01:00:46.011Z,148.35
2023-05-19T01:01:46.047Z,148.06
2023-05-19T01:02:46.250Z,149.56
2023-05-19T01:03:46.282Z,150.93
2023-05-19T01:04:46.181Z,149.41
2023-05-19T01:05:46.222Z,149.81
2023-05-19T01:06:46.277Z,153.00
2023-05-19T01:07:46.324Z,148.15
2023-05-19T01:08:46.370Z,151.56
2023-05-19T01:09:46.415Z,147.31
2023-05-19T01:10:46.466Z,150.95
2023-05-19T01:11:46.523Z,151.85
2023-05-19T01:12:46.574Z,150.30
2023-05-19T01:13:46.621Z,148.95
2023-05-19T01:14:46.682Z,152.41
2023-05-19T01:15:46.720Z,150.10
2023-05-19T01:16:46.878Z,150.11
2023-05-19T01:17:46.879Z,149.68
2023-05-19T01:18:46.955Z,152.82
2023-05-19T01:19:46.939Z,148.90
2023-05-19T01:20:46.999Z,148.58
2023-05-19T01:21:47.043Z,151.26
2023-05-19T01:22:47.099Z,149.21
2023-05-19T01:23:47.138Z,149.21
2023-05-19T01:24:47.205Z,150.70
2023-05-19T01:25:47.248Z,150.15
2023-05-19T01:26:47.316Z,149.73
2023-05-19T01:27:47.371Z,153.42
2023-05-19T01:28:47.430Z,151.07
2023-05-19T01:29:47.456Z,151.45
2023-05-19T01:30:47.506Z,153.68
2023-05-19T01:31:47.609Z,150.72
2023-05-19T01:32:47.633Z,150.52
2023-05-19T01:33:47.664Z,149.77
2023-05-19T01:34:47.711Z,148.54
2023-05-19T01:35:47.779Z,148.87
2023-05-19T01:36:47.810Z,150.26
2023-05-19T01:37:47.882Z,150.74
2023-05-19T01:38:47.935Z,150.66
2023-05-19T01:39:47.974Z,148.40
2023-05-19T01:40:48.030Z,149.08
2023-05-19T01:41:48.093Z,148.14
2023-05-19T01:42:48.148Z,147.52
2023-05-19T01:43:48.197Z,147.33
2023-05-19T01:44:48.249Z,150.13
2023-05-19T01:45:48.333Z,150.35
2023-05-19T01:46:48.383Z,153.92
2023-05-19T01:47:48.425Z,149.78
2023-05-19T01:48:48.469Z,148.65
2023-05-19T01:49:48.515Z,149.44
2023-05-19T01:50:48.588Z,149.53
2023-05-19T01:51:48.636Z,152.52
2023-05-19T01:52:48.689Z,152.98
2023-05-19T01:53:48.740Z,150.38
2023-05-19T01:54:48.807Z,151.03
2023-05-19T01:55:48.846Z,153.24
2023-05-19T01:56:48.900Z,152.76
2023-05-19T01:57:48.962Z,150.36
2023-05-19T01:58:49.010Z,150.94
2023-05-19T01:59:49.063Z,152.70
2023-05-19T02:00:49.123Z,151.17
2023-05-19T02:01:49.176Z,150.94
2023-05-19T02:02:49.270Z,151.67
2023-05-19T02:03:49.282Z,153.23
2023-05-19T02:04:49.443Z,153.20
2023-05-19T02:05:49.429Z,150.23
2023-05-19T02:06:49.465Z,153.09
2023-05-19T02:07:49.578Z,150.03
2023-05-19T02:08:49.563Z,151.38
2023-05-19T02:09:49.616Z,154.85
2023-05-19T02:10:49.677Z,154.84
2023-05-19T02:11:49.759Z,152.66
2023-05-19T02:12:49.805Z,151.11
2023-05-19T02:13:49.850Z,153.24
2023-05-19T02:14:49.924Z,155.97
2023-05-19T02:15:50.016Z,155.28
2023-05-19T02:16:50.038Z,155.27
2023-05-19T02:17:50.099Z,151.84
2023-05-19T02:18:50.197Z,153.09
2023-05-19T02:19:50.197Z,151.01
2023-05-19T02:20:50.257Z,149.38
2023-05-19T02:21:50.304Z,152.27
2023-05-19T02:22:50.368Z,155.36
2023-05-19T02:23:50.432Z,150.34
2023-05-19T02:24:50.490Z,153.25
2023-05-19T02:25:50.542Z,154.12
2023-05-19T02:26:50.613Z,153.64
2023-05-19T02:27:50.653Z,150.79
2023-05-19T02:28:50.717Z,151.35
2023-05-19T02:29:50.781Z,149.55
2023-05-19T02:30:50.828Z,154.65
2023-05-19T02:31:51.093Z,149.55
2023-05-19T02:32:50.961Z,152.76
2023-05-19T02:33:51.003Z,156.10
2023-05-19T02:34:51.089Z,149.92
2023-05-19T02:35:51.123Z,148.89
2023-05-19T02:36:51.193Z,154.40
2023-05-19T02:37:51.259Z,151.34
2023-05-19T02:38:51.316Z,153.29
2023-05-19T02:39:51.381Z,154.31
2023-05-19T02:40:51.446Z,149.98
2023-05-19T02:41:51.513Z,152.75
2023-05-19T02:42:51.565Z,152.92
2023-05-19T02:43:51.631Z,149.65
2023-05-19T02:44:51.696Z,151.79
2023-05-19T02:45:51.760Z,154.30
2023-05-19T02:46:51.857Z,152.79
2023-05-19T02:47:51.899Z,155.69
2023-05-19T02:48:51.944Z,152.69
2023-05-19T02:49:51.989Z,154.57
2023-05-19T02:50:52.073Z,151.52
2023-05-19T02:51:52.113Z,149.75
2023-05-19T02:52:52.158Z,151.58
2023-05-19T02:53:52.229Z,148.76
2023-05-19T02:54:52.289Z,152.77
2023-05-19T02:55:52.361Z,153.44
2023-05-19T02:56:52.419Z,150.19
2023-05-19T02:57:52.475Z,152.29
2023-05-19T02:58:52.515Z,147.79
2023-05-19T02:59:52.580Z,152.63
2023-05-19T03:00:52.646Z,154.18
2023-05-19T03:01:52.735Z,151.32
2023-05-19T03:02:52.785Z,154.27
2023-05-19T03:03:52.962Z,150.55
2023-05-19T03:04:52.848Z,151.99
2023-05-19T03:05:52.907Z,151.55
2023-05-19T03:06:52.989Z,149.83
2023-05-19T03:07:53.032Z,156.63
2023-05-19T03:08:53.097Z,154.13
2023-05-19T03:09:53.161Z,153.00
2023-05-19T03:10:53.216Z,152.74
2023-05-19T03:11:53.280Z,151.50
2023-05-19T03:12:53.330Z,150.76
2023-05-19T03:13:53.380Z,150.21
2023-05-19T03:14:53.433Z,155.45
2023-05-19T03:15:53.566Z,148.54
2023-05-19T03:16:53.770Z,151.60
2023-05-19T03:17:53.720Z,152.17
2023-05-19T03:18:53.737Z,150.06
2023-05-19T03:19:53.739Z,153.94
2023-05-19T03:20:53.808Z,150.90
2023-05-19T03:21:53.853Z,152.45
2023-05-19T03:22:53.908Z,152.60
2023-05-19T03:23:53.977Z,152.62
2023-05-19T03:24:54.026Z,149.87
2023-05-19T03:25:54.067Z,150.62
2023-05-19T03:26:54.138Z,154.38
2023-05-19T03:27:54.191Z,150.84
2023-05-19T03:28:54.265Z,153.45
2023-05-19T03:29:54.322Z,152.97
2023-05-19T03:30:54.367Z,147.89
2023-05-19T03:31:54.449Z,151.50
2023-05-19T03:32:54.550Z,152.06
2023-05-19T03:33:54.547Z,150.01
2023-05-19T03:34:54.598Z,148.97
2023-05-19T03:35:54.666Z,149.54
2023-05-19T03:36:54.729Z,146.33
2023-05-19T03:37:54.784Z,146.82
2023-05-19T03:38:54.848Z,145.95
2023-05-19T03:39:54.916Z,149.45
2023-05-19T03:40:54.967Z,145.68
2023-05-19T03:41:55.053Z,146.06
2023-05-19T03:42:55.078Z,148.11
2023-05-19T03:43:55.135Z,147.78
2023-05-19T03:44:55.206Z,145.86
2023-05-19T03:45:55.301Z,147.23
2023-05-19T03:46:55.317Z,148.50
2023-05-19T03:47:55.405Z,144.66
2023-05-19T03:48:55.461Z,148.28
2023-05-19T03:49:55.486Z,144.63
2023-05-19T03:50:55.574Z,151.06
2023-05-19T03:51:55.629Z,146.90
2023-05-19T03:52:55.677Z,146.48
2023-05-19T03:53:55.744Z,148.61
2023-05-19T03:54:55.821Z,146.32
2023-05-19T03:55:55.876Z,149.52
2023-05-19T03:56:55.929Z,143.52
2023-05-19T03:57:55.981Z,147.83
2023-05-19T03:58:56.046Z,146.12
2023-05-19T03:59:56.099Z,145.35
2023-05-19T04:00:56.183Z,143.66
2023-05-19T04:01:56.263Z,146.46
2023-05-19T04:02:56.390Z,144.38
2023-05-19T04:03:56.442Z,147.72
2023-05-19T04:04:56.432Z,148.39
2023-05-19T04:05:56.478Z,143.59
2023-05-19T04:06:56.556Z,147.62
2023-05-19T04:07:56.612Z,144.98
2023-05-19T04:08:56.671Z,148.17
2023-05-19T04:09:56.748Z,143.41
2023-05-19T04:10:56.795Z,147.11
2023-05-19T04:11:56.889Z,147.01
2023-05-19T04:12:56.969Z,145.73
2023-05-19T04:13:56.967Z,147.00
2023-05-19T04:14:57.048Z,145.89
2023-05-19T04:15:57.100Z,142.17
2023-05-19T04:16:57.151Z,145.82
2023-05-19T04:17:57.329Z,144.84
2023-05-19T04:18:57.290Z,144.52
2023-05-19T04:19:57.338Z,145.96
2023-05-19T04:20:57.387Z,145.21
2023-05-19T04:21:57.470Z,144.59
2023-05-19T04:22:57.504Z,146.44
2023-05-19T04:23:57.560Z,145.84
2023-05-19T04:24:57.633Z,142.24
2023-05-19T04:25:57.659Z,143.59
2023-05-19T04:26:57.718Z,141.21
2023-05-19T04:27:57.849Z,143.30
2023-05-19T04:28:57.812Z,140.94
2023-05-19T04:29:57.890Z,143.21
2023-05-19T04:30:57.948Z,142.68
2023-05-19T04:31:57.987Z,143.38
2023-05-19T04:32:58.035Z,143.77
2023-05-19T04:33:58.054Z,140.11
2023-05-19T04:34:58.093Z,138.84
2023-05-19T04:35:58.156Z,140.58
2023-05-19T04:36:58.176Z,138.49
2023-05-19T04:37:58.222Z,142.00
2023-05-19T04:38:58.249Z,137.53
2023-05-19T04:39:58.262Z,138.42
2023-05-19T04:40:58.334Z,136.93
2023-05-19T04:41:58.337Z,136.93
2023-05-19T04:42:58.347Z,132.79
2023-05-19T04:43:58.374Z,133.33
2023-05-19T04:44:58.385Z,132.89
2023-05-19T04:45:58.409Z,132.84
2023-05-19T04:46:58.476Z,129.03
2023-05-19T04:47:58.490Z,132.27
2023-05-19T04:48:58.441Z,129.34
2023-05-19T04:49:58.451Z,128.93
2023-05-19T04:50:58.459Z,129.95
2023-05-19T04:51:58.454Z,128.21
2023-05-19T04:52:58.445Z,124.05
2023-05-19T04:53:58.484Z,100.86
2023-05-19T04:54:58.489Z,78.43
2023-05-19T04:55:58.541Z,63.51
2023-05-19T04:56:58.611Z,69.76
2023-05-19T04:57:58.621Z,69.40
2023-05-19T04:58:58.682Z,79.66
2023-05-19T04:59:58.719Z,89.03
2023-05-19T05:00:58.751Z,94.80
2023-05-19T05:01:58.800Z,93.02
2023-05-19T05:02:58.823Z,93.72
2023-05-19T05:03:58.936Z,99.72
2023-05-19T05:04:58.797Z,105.72
2023-05-19T05:05:58.865Z,103.09
2023-05-19T05:06:58.919Z,104.81
2023-05-19T05:07:58.942Z,105.60
2023-05-19T05:08:58.977Z,111.38
2023-05-19T05:09:59.043Z,115.36
2023-05-19T05:10:59.117Z,110.49
2023-05-19T05:11:59.157Z,107.26
2023-05-19T05:12:59.248Z,104.34
2023-05-19T05:13:59.277Z,101.44
2023-05-19T05:14:59.331Z,106.01
2023-05-19T05:15:59.429Z,110.73
2023-05-19T05:16:59.483Z,111.21
2023-05-19T05:17:59.566Z,106.98
2023-05-19T05:18:59.605Z,116.02
2023-05-19T05:19:59.577Z,120.21
2023-05-19T05:20:59.608Z,118.57
2023-05-19T05:21:59.584Z,120.96
2023-05-19T05:22:59.578Z,122.37
2023-05-19T05:23:59.598Z,121.02
2023-05-19T05:24:59.596Z,124.72
2023-05-19T05:25:59.591Z,125.99
2023-05-19T05:26:59.620Z,124.31
2023-05-19T05:27:59.592Z,123.96
2023-05-19T05:28:59.644Z,125.16
2023-05-19T05:29:59.613Z,125.64
2023-05-19T05:30:59.629Z,126.88
2023-05-19T05:31:59.743Z,128.64
2023-05-19T05:32:59.705Z,126.42
2023-05-19T05:33:59.645Z,125.79
2023-05-19T05:34:59.660Z,123.89
2023-05-19T05:35:59.670Z,119.83
2023-05-19T05:36:59.727Z,118.26
2023-05-19T05:37:59.769Z,117.06
2023-05-19T05:38:59.818Z,113.29
2023-05-19T05:39:59.910Z,114.42
2023-05-19T05:40:59.951Z,112.90
2023-05-19T05:42:00.042Z,120.95
2023-05-19T05:43:00.077Z,117.29
2023-05-19T05:44:00.138Z,115.05
2023-05-19T05:45:00.194Z,119.15
2023-05-19T05:46:00.328Z,115.31
2023-05-19T05:47:00.310Z,118.51
2023-05-19T05:48:00.362Z,121.04
2023-05-19T05:49:00.379Z,125.70
2023-05-19T05:50:00.430Z,124.18
2023-05-19T05:51:00.418Z,123.97
2023-05-19T05:53:00.422Z,126.80
2023-05-19T05:54:00.411Z,126.34
2023-05-19T05:55:00.415Z,128.47
2023-05-19T05:56:00.412Z,129.76
2023-05-19T05:57:00.398Z,130.46
2023-05-19T05:58:00.385Z,129.77
2023-05-19T05:59:00.408Z,129.47
2023-05-19T06:00:00.392Z,129.45
2023-05-19T06:01:00.365Z,131.47
2023-05-19T06:02:00.405Z,129.67
2023-05-19T06:03:00.493Z,131.10
2023-05-19T06:04:00.421Z,132.84
2023-05-19T06:05:00.417Z,131.57
2023-05-19T06:06:00.484Z,131.93
2023-05-19T06:07:00.336Z,131.56
2023-05-19T06:08:00.328Z,131.55
2023-05-19T06:09:00.316Z,134.47
2023-05-19T06:10:00.351Z,133.24
2023-05-19T06:11:00.316Z,134.13
2023-05-19T06:12:00.297Z,134.31
2023-05-19T06:13:00.366Z,133.83
2023-05-19T06:14:00.286Z,132.87
2023-05-19T06:15:00.302Z,134.44
2023-05-19T06:16:01.995Z,132.21
2023-05-19T06:17:00.267Z,132.41
2023-05-19T06:18:00.267Z,130.47
2023-05-19T06:19:00.297Z,132.39
2023-05-19T06:20:00.241Z,128.11
2023-05-19T06:21:00.240Z,125.59
2023-05-19T06:22:00.238Z,120.44
2023-05-19T06:23:00.227Z,122.41
2023-05-19T06:24:00.268Z,125.98
2023-05-19T06:25:00.344Z,119.52
2023-05-19T06:26:00.368Z,118.46
2023-05-19T06:27:00.440Z,119.39
2023-05-19T06:28:00.496Z,133.27
2023-05-19T06:29:00.549Z,130.33
2023-05-19T06:30:00.614Z,133.78
2023-05-19T06:31:00.745Z,134.05
2023-05-19T06:32:00.714Z,136.00
2023-05-19T06:33:00.825Z,135.43
2023-05-19T06:34:00.821Z,137.10
2023-05-19T06:35:00.878Z,138.12
2023-05-19T06:36:00.892Z,137.71
2023-05-19T06:37:00.933Z,137.15
2023-05-19T06:38:00.961Z,138.62
2023-05-19T06:39:02.525Z,138.56
2023-05-19T06:40:01.041Z,138.50
2023-05-19T06:41:01.093Z,135.48
2023-05-19T06:42:01.145Z,137.48
2023-05-19T06:43:01.213Z,136.98
2023-05-19T06:44:01.254Z,138.96
2023-05-19T06:45:01.325Z,138.32
2023-05-19T06:46:01.435Z,136.10
2023-05-19T06:47:01.526Z,133.60
2023-05-19T06:48:01.592Z,136.50
2023-05-19T06:49:01.581Z,138.79
2023-05-19T06:50:01.635Z,134.39
2023-05-19T06:51:01.701Z,138.77
2023-05-19T06:52:01.768Z,139.36
2023-05-19T06:53:01.847Z,138.98
2023-05-19T06:54:01.878Z,143.60
2023-05-19T06:55:01.929Z,142.63
2023-05-19T06:56:01.996Z,145.59
2023-05-19T06:57:02.051Z,144.19
2023-05-19T06:58:02.121Z,146.63
2023-05-19T06:59:02.186Z,146.85
2023-05-19T07:00:02.230Z,147.23
2023-05-19T07:01:02.294Z,148.67
2023-05-19T07:02:02.400Z,146.84
2023-05-19T07:03:02.490Z,149.23
2023-05-19T07:04:02.501Z,148.95
2023-05-19T07:05:02.537Z,146.15
2023-05-19T07:06:02.610Z,148.71
2023-05-19T07:07:02.683Z,148.47
2023-05-19T07:08:02.710Z,147.58
2023-05-19T07:09:02.779Z,149.39
2023-05-19T07:10:02.837Z,149.65
2023-05-19T07:11:02.889Z,150.38
2023-05-19T07:12:02.926Z,149.50
2023-05-19T07:13:03.024Z,152.17
2023-05-19T07:14:03.041Z,150.65
2023-05-19T07:15:03.079Z,149.54
2023-05-19T07:16:03.136Z,149.99
2023-05-19T07:17:03.167Z,153.11
2023-05-19T07:18:03.257Z,152.42
2023-05-19T07:19:03.312Z,150.94
2023-05-19T07:20:03.244Z,152.03
2023-05-19T07:21:03.282Z,154.07
2023-05-19T07:22:03.324Z,153.37
2023-05-19T07:23:03.382Z,154.85
2023-05-19T07:24:03.410Z,152.13
2023-05-19T07:25:03.459Z,152.50
2023-05-19T07:26:03.493Z,151.77
2023-05-19T07:27:03.577Z,153.69
2023-05-19T07:28:03.598Z,152.79
2023-05-19T07:29:03.639Z,153.17
2023-05-19T07:30:03.698Z,152.57
2023-05-19T07:31:03.764Z,154.26
2023-05-19T07:32:03.823Z,153.66
2023-05-19T07:33:03.924Z,154.42
2023-05-19T07:34:03.912Z,155.30
2023-05-19T07:35:03.958Z,154.63
2023-05-19T07:36:04.017Z,153.81
2023-05-19T07:37:04.079Z,154.75
2023-05-19T07:38:04.126Z,155.73
2023-05-19T07:39:04.232Z,155.90
2023-05-19T07:40:04.230Z,157.95
2023-05-19T07:41:04.334Z,154.53
2023-05-19T07:42:04.344Z,155.29
2023-05-19T07:43:04.401Z,158.60
2023-05-19T07:44:04.445Z,157.73
2023-05-19T07:45:04.507Z,152.77
2023-05-19T07:46:04.628Z,157.26
2023-05-19T07:47:04.616Z,157.97
2023-05-19T07:48:04.711Z,158.11
2023-05-19T07:49:04.736Z,156.03
2023-05-19T07:50:04.793Z,157.37
2023-05-19T07:51:04.838Z,157.44
2023-05-19T07:52:04.897Z,156.01
2023-05-19T07:53:04.968Z,156.08
2023-05-19T07:54:05.016Z,154.03
2023-05-19T07:55:05.070Z,154.52
2023-05-19T07:56:05.110Z,154.67
2023-05-19T07:57:05.216Z,153.48
2023-05-19T07:58:05.246Z,153.65
2023-05-19T07:59:05.296Z,155.14
2023-05-19T08:00:05.356Z,156.85
2023-05-19T08:01:05.428Z,155.01
2023-05-19T08:02:05.532Z,156.31
2023-05-19T08:03:05.618Z,157.07
2023-05-19T08:04:05.691Z,157.14
2023-05-19T08:05:05.662Z,155.85
2023-05-19T08:06:05.732Z,154.21
2023-05-19T08:07:05.800Z,156.12
2023-05-19T08:08:05.851Z,157.30
2023-05-19T08:09:05.910Z,156.42
2023-05-19T08:10:06.081Z,158.84
2023-05-19T08:11:06.069Z,159.09
2023-05-19T08:12:06.119Z,156.34
2023-05-19T08:13:06.186Z,159.00
2023-05-19T08:14:06.249Z,159.11
2023-05-19T08:15:06.325Z,162.25
2023-05-19T08:16:06.491Z,161.28
2023-05-19T08:17:06.445Z,163.33
2023-05-19T08:18:06.566Z,162.32
2023-05-19T08:19:06.600Z,163.09
2023-05-19T08:20:06.612Z,165.50
2023-05-19T08:21:06.680Z,166.03
2023-05-19T08:22:06.753Z,162.63
2023-05-19T08:23:06.831Z,163.02
2023-05-19T08:24:06.885Z,165.28
2023-05-19T08:25:06.931Z,161.03
2023-05-19T08:26:07.011Z,159.69
2023-05-19T08:27:07.076Z,160.51
2023-05-19T08:28:07.132Z,157.51
2023-05-19T08:29:07.182Z,155.58
2023-05-19T08:30:07.239Z,156.96
2023-05-19T08:31:07.343Z,158.79
2023-05-19T08:32:07.348Z,158.28
2023-05-19T08:33:07.486Z,158.78
2023-05-19T08:34:07.485Z,152.48
2023-05-19T08:35:07.534Z,155.22
2023-05-19T08:36:07.599Z,155.75
2023-05-19T08:37:07.658Z,158.42
2023-05-19T08:38:07.714Z,151.77
2023-05-19T08:39:07.769Z,156.77
2023-05-19T08:40:07.828Z,156.06
2023-05-19T08:41:07.882Z,158.60
2023-05-19T08:42:07.947Z,155.16
2023-05-19T08:43:08.017Z,153.36
2023-05-19T08:44:08.076Z,149.14
2023-05-19T08:45:08.144Z,156.11
2023-05-19T08:46:08.393Z,156.34
2023-05-19T08:47:08.341Z,151.62
2023-05-19T08:48:08.336Z,150.13
2023-05-19T08:49:08.349Z,150.14
2023-05-19T08:50:08.427Z,147.48
2023-05-19T08:51:08.469Z,150.35
2023-05-19T08:52:08.521Z,148.07
2023-05-19T08:53:18.108Z,146.77
2023-05-19T08:54:09.567Z,146.94
2023-05-19T08:55:08.564Z,146.29
2023-05-19T08:56:08.556Z,147.94
2023-05-19T08:57:08.562Z,144.40
2023-05-19T08:58:08.533Z,148.30
2023-05-19T08:59:09.102Z,152.67
2023-05-19T09:00:08.521Z,149.37
2023-05-19T09:01:08.577Z,151.84
2023-05-19T09:02:08.513Z,149.11
2023-05-19T09:04:08.593Z,148.71
2023-05-19T09:05:08.669Z,151.49
2023-05-19T09:06:08.773Z,157.01
2023-05-19T09:07:08.509Z,149.34
2023-05-19T09:08:08.493Z,151.56
2023-05-19T09:09:08.506Z,148.10
2023-05-19T09:10:08.478Z,153.59
2023-05-19T09:11:08.478Z,147.72
2023-05-19T09:12:08.482Z,144.77
2023-05-19T09:13:08.467Z,150.84
2023-05-19T09:14:08.454Z,150.18
2023-05-19T09:15:08.460Z,146.09
2023-05-19T09:16:08.620Z,153.08
2023-05-19T09:17:08.572Z,156.76
2023-05-19T09:18:08.466Z,151.40
2023-05-19T09:19:08.444Z,149.18
2023-05-19T09:20:08.413Z,154.34
2023-05-19T09:21:08.413Z,143.24
2023-05-19T09:22:08.410Z,146.97
2023-05-19T09:23:08.382Z,152.33
2023-05-19T09:24:08.399Z,154.73
2023-05-19T09:25:08.375Z,151.09
2023-05-19T09:26:08.405Z,155.55
2023-05-19T09:27:08.372Z,147.45
2023-05-19T09:28:08.351Z,153.92
2023-05-19T09:29:08.341Z,151.98
2023-05-19T09:30:08.362Z,146.04
2023-05-19T09:31:08.452Z,147.58
2023-05-19T09:32:08.479Z,147.64
2023-05-19T09:33:08.371Z,152.37
2023-05-19T09:34:08.321Z,147.52
2023-05-19T09:35:08.298Z,147.71
2023-05-19T09:36:08.357Z,147.56
2023-05-19T09:37:08.295Z,145.37
2023-05-19T09:38:08.295Z,153.87
2023-05-19T09:39:08.282Z,146.49
2023-05-19T09:40:08.276Z,154.87
2023-05-19T09:41:08.258Z,148.06
2023-05-19T09:42:08.284Z,155.61
2023-05-19T09:43:08.255Z,148.73
2023-05-19T09:44:08.250Z,155.85
2023-05-19T09:45:08.226Z,149.31
2023-05-19T09:46:08.336Z,150.19
2023-05-19T09:47:08.220Z,153.74
2023-05-19T09:48:08.268Z,150.52
2023-05-19T09:49:08.200Z,146.66
2023-05-19T09:50:08.207Z,153.79
2023-05-19T09:51:08.347Z,153.58
2023-05-19T09:52:08.231Z,154.59
2023-05-19T09:53:08.270Z,157.31
2023-05-19T09:54:08.313Z,151.83
2023-05-19T09:55:08.333Z,157.64
2023-05-19T09:56:08.376Z,157.60
2023-05-19T09:57:08.876Z,159.90
2023-05-19T09:58:08.437Z,156.35
2023-05-19T09:59:08.473Z,155.41
2023-05-19T10:00:08.527Z,160.70
2023-05-19T10:01:08.620Z,164.07
2023-05-19T10:02:08.583Z,158.12
2023-05-19T10:03:08.644Z,150.83
2023-05-19T10:04:08.670Z,151.65
2023-05-19T10:05:08.714Z,152.21
2023-05-19T10:06:08.700Z,156.59
2023-05-19T10:07:08.733Z,150.07
2023-05-19T10:08:08.766Z,157.72
2023-05-19T10:09:08.820Z,156.31
2023-05-19T10:10:08.853Z,153.25
2023-05-19T10:11:08.893Z,154.05
2023-05-19T10:12:08.930Z,155.77
2023-05-19T10:13:08.966Z,156.48
2023-05-19T10:14:09.013Z,157.45
2023-05-19T10:15:09.039Z,157.62
2023-05-19T10:16:09.108Z,159.91
2023-05-19T10:17:09.120Z,154.06
2023-05-19T10:18:09.288Z,153.14
2023-05-19T10:19:09.313Z,159.78
2023-05-19T10:20:09.302Z,154.63
2023-05-19T10:21:09.271Z,152.05
2023-05-19T10:22:09.313Z,153.36
2023-05-19T10:23:09.351Z,156.14
2023-05-19T10:24:10.882Z,158.93
2023-05-19T10:25:09.421Z,157.91
2023-05-19T10:26:09.457Z,150.44
2023-05-19T10:27:09.494Z,154.88
2023-05-19T10:28:09.516Z,160.26
2023-05-19T10:29:09.578Z,158.57
2023-05-19T10:30:11.762Z,154.61
2023-05-19T10:31:09.599Z,157.04
2023-05-19T10:32:09.659Z,158.01
2023-05-19T10:33:09.639Z,147.23
2023-05-19T10:34:09.583Z,150.42
2023-05-19T10:35:09.557Z,147.73
2023-05-19T10:36:09.570Z,150.14
2023-05-19T10:37:09.569Z,152.37
2023-05-19T10:38:09.556Z,148.27
2023-05-19T10:39:09.538Z,150.64
2023-05-19T10:40:09.534Z,153.86
2023-05-19T10:41:09.518Z,147.19
2023-05-19T10:42:09.528Z,153.83
2023-05-19T10:43:09.514Z,153.92
2023-05-19T10:44:09.506Z,156.28
2023-05-19T10:45:09.503Z,156.12
2023-05-19T10:46:09.494Z,146.96
2023-05-19T10:47:09.538Z,148.14
2023-05-19T10:48:09.617Z,153.23
2023-05-19T10:49:09.485Z,150.12
2023-05-19T10:50:09.472Z,153.45
2023-05-19T10:51:10.410Z,157.04
2023-05-19T10:52:09.458Z,149.32
2023-05-19T10:53:09.455Z,150.67
2023-05-19T10:54:10.486Z,152.34
2023-05-19T10:55:09.672Z,152.60
2023-05-19T10:56:09.711Z,153.34
2023-05-19T10:57:09.746Z,154.41
2023-05-19T10:58:09.786Z,148.27
2023-05-19T10:59:09.824Z,145.01
2023-05-19T11:00:09.854Z,152.41
2023-05-19T11:01:09.905Z,147.58
2023-05-19T11:02:09.978Z,151.20
2023-05-19T11:03:10.054Z,146.95
2023-05-19T11:04:10.074Z,156.25
2023-05-19T11:05:10.100Z,158.27
2023-05-19T11:06:10.117Z,155.20
2023-05-19T11:07:10.130Z,143.04
2023-05-19T11:08:10.156Z,152.64
2023-05-19T11:09:10.211Z,152.34
2023-05-19T11:10:10.228Z,153.71
2023-05-19T11:11:10.272Z,149.77
2023-05-19T11:12:10.324Z,148.21
2023-05-19T11:13:10.339Z,147.35
2023-05-19T11:14:10.378Z,155.60
2023-05-19T11:15:10.413Z,148.18
2023-05-19T11:16:10.489Z,148.17
2023-05-19T11:17:10.483Z,149.46
2023-05-19T11:18:10.568Z,153.55
2023-05-19T11:19:10.697Z,151.50
2023-05-19T11:20:10.597Z,156.62
2023-05-19T11:21:10.629Z,150.98
2023-05-19T11:22:10.635Z,154.19
2023-05-19T11:23:10.751Z,145.27
2023-05-19T11:24:10.699Z,145.83
2023-05-19T11:25:10.718Z,157.18
2023-05-19T11:26:10.737Z,154.76
2023-05-19T11:27:10.783Z,151.15
2023-05-19T11:28:10.804Z,145.15
2023-05-19T11:29:10.851Z,154.67
2023-05-19T11:30:10.878Z,153.18
2023-05-19T11:31:10.924Z,155.36
2023-05-19T11:32:11.124Z,157.17
2023-05-19T11:33:11.036Z,150.00
2023-05-19T11:34:11.051Z,150.87
2023-05-19T11:35:11.065Z,155.64
2023-05-19T11:36:11.096Z,156.68
2023-05-19T11:37:11.109Z,150.97
2023-05-19T11:38:11.135Z,150.61
2023-05-19T11:39:11.167Z,156.67
2023-05-19T11:40:11.222Z,150.91
2023-05-19T11:41:11.234Z,144.29
2023-05-19T11:42:11.272Z,147.57
2023-05-19T11:43:11.311Z,143.54
2023-05-19T11:44:11.333Z,148.53
2023-05-19T11:45:11.370Z,151.30
2023-05-19T11:46:11.444Z,155.62
2023-05-19T11:47:11.474Z,147.01
2023-05-19T11:48:11.577Z,151.82
2023-05-19T11:49:11.517Z,152.79
2023-05-19T11:50:11.577Z,157.03
2023-05-19T11:51:11.563Z,153.44
2023-05-19T11:52:11.607Z,154.32
2023-05-19T11:53:11.628Z,147.51
2023-05-19T11:54:11.665Z,141.86
2023-05-19T11:55:11.700Z,141.82
2023-05-19T11:56:11.738Z,146.42
2023-05-19T11:57:11.784Z,146.10
2023-05-19T11:58:11.801Z,151.03
2023-05-19T11:59:11.840Z,154.63
2023-05-19T12:00:11.942Z,150.60
2023-05-19T12:01:11.908Z,153.78
2023-05-19T12:02:11.979Z,149.60
2023-05-19T12:03:12.040Z,149.55
2023-05-19T12:04:11.984Z,148.76
2023-05-19T12:05:12.056Z,141.44
2023-05-19T12:06:12.103Z,148.66
2023-05-19T12:07:12.090Z,136.32
2023-05-19T12:08:12.249Z,139.20
2023-05-19T12:09:12.142Z,146.37
2023-05-19T12:10:12.172Z,138.13
2023-05-19T12:11:12.201Z,139.83
2023-05-19T12:12:12.232Z,136.59
2023-05-19T12:13:12.268Z,137.47
2023-05-19T12:14:12.318Z,144.19
2023-05-19T12:15:12.340Z,135.72
2023-05-19T12:16:12.384Z,134.65
2023-05-19T12:17:12.420Z,139.85
2023-05-19T12:18:12.462Z,130.89
2023-05-19T12:19:12.507Z,134.50
2023-05-19T12:20:12.482Z,132.29
2023-05-19T12:21:12.515Z,136.22
2023-05-19T12:22:12.573Z,138.29
2023-05-19T12:23:12.611Z,136.27
2023-05-19T12:24:12.630Z,140.46
2023-05-19T12:25:12.644Z,133.35
2023-05-19T12:26:12.664Z,133.72
2023-05-19T12:27:12.712Z,138.58
2023-05-19T12:28:12.784Z,125.46
2023-05-19T12:29:12.765Z,132.21
2023-05-19T12:30:12.785Z,130.60
2023-05-19T12:31:12.845Z,121.93